Time;durP1;ratioP1;P1;durP2;ratioP2;P2;SDS_P1;SDS_P2;PMS_P1;PMS_P2;Temp;Humidity;BMP_temperature;BMP_pressure;BME280_temperature;BME280_humidity;BME280_pressure;Samples;Min_cycle;Max_cycle;Signal;HPM_P1;HPM_P2
2024/02/06 00:00:21;;;;;;;32.58;14.93;;;;;;;;;;6207747;23;20074;-74
2024/02/06 00:02:47;;;;;;;44.63;16.52;;;;;;;;;;6208203;23;20055;-75
2024/02/06 00:05:13;;;;;;;38.53;17.08;;;;;;;;;;6208054;23;20004;-73
2024/02/06 00:07:39;;;;;;;33.80;16.45;;;;;;;;;;6208151;23;20015;-73
2024/02/06 00:10:05;;;;;;;44.38;16.40;;;;;;;;;;6208074;23;20028;-74
2024/02/06 00:12:31;;;;;;;35.80;15.05;;;;;;;;;;6208121;23;20043;-74
2024/02/06 00:14:57;;;;;;;39.78;16.05;;;;;;;;;;6207805;23;20401;-72
2024/02/06 00:17:23;;;;;;;40.47;17.40;;;;;;;;;;6207667;23;20056;-74
2024/02/06 00:19:49;;;;;;;35.20;15.57;;;;;;;;;;6207480;23;20008;-72
2024/02/06 00:22:15;;;;;;;37.40;15.82;;;;;;;;;;6207582;23;20001;-74
2024/02/06 00:24:41;;;;;;;36.33;16.48;;;;;;;;;;6207693;23;20012;-71
2024/02/06 00:27:08;;;;;;;39.03;16.38;;;;;;;;;;6208203;23;20511;-75
2024/02/06 00:29:34;;;;;;;36.15;16.00;;;;;;;;;;6209392;23;20005;-74
2024/02/06 00:32:00;;;;;;;45.80;16.27;;;;;;;;;;6209296;23;20035;-74
2024/02/06 00:34:26;;;;;;;40.45;17.25;;;;;;;;;;6209446;23;20095;-75
2024/02/06 00:36:52;;;;;;;31.92;15.10;;;;;;;;;;6209534;23;20043;-74
2024/02/06 00:39:18;;;;;;;33.25;15.32;;;;;;;;;;6209743;23;20502;-74
2024/02/06 00:41:44;;;;;;;48.50;17.38;;;;;;;;;;6209480;23;20012;-71
2024/02/06 00:44:10;;;;;;;32.70;15.35;;;;;;;;;;6209354;23;20008;-72
2024/02/06 00:46:36;;;;;;;37.38;15.63;;;;;;;;;;6209489;23;20020;-71
2024/02/06 00:49:02;;;;;;;33.95;16.83;;;;;;;;;;6209169;23;20767;-71
2024/02/06 00:51:28;;;;;;;58.13;18.80;;;;;;;;;;6209146;23;20005;-71
2024/02/06 00:53:54;;;;;;;70.25;21.02;;;;;;;;;;6208572;23;20004;-74
2024/02/06 00:56:21;;;;;;;63.00;21.95;;;;;;;;;;6209076;23;20008;-73
2024/02/06 00:58:47;;;;;;;47.72;21.52;;;;;;;;;;6209190;23;20104;-74
2024/02/06 01:01:13;;;;;;;61.35;20.45;;;;;;;;;;6209158;23;20677;-74
2024/02/06 01:03:39;;;;;;;50.97;17.63;;;;;;;;;;6209454;23;20028;-75
2024/02/06 01:06:05;;;;;;;91.78;21.33;;;;;;;;;;6208992;23;20009;-74
2024/02/06 01:08:31;;;;;;;;;;;;;;;;;;6209533;23;20008;-73
2024/02/06 01:10:57;;;;;;;46.33;17.60;;;;;;;;;;6209090;23;19903;-70
2024/02/06 01:13:23;;;;;;;65.22;19.38;;;;;;;;;;6209329;23;20009;-71
2024/02/06 01:15:49;;;;;;;49.08;19.17;;;;;;;;;;6208784;23;20077;-71
2024/02/06 01:18:15;;;;;;;48.53;19.92;;;;;;;;;;6208910;23;20012;-71
2024/02/06 01:20:41;;;;;;;43.92;17.08;;;;;;;;;;6181905;23;20008;-71
2024/02/06 01:23:07;;;;;;;77.68;18.45;;;;;;;;;;6209211;23;20005;-71
2024/02/06 01:25:34;;;;;;;38.88;17.42;;;;;;;;;;6182034;23;20428;-70
2024/02/06 01:28:00;;;;;;;49.65;18.70;;;;;;;;;;6209082;23;20046;-74
2024/02/06 01:30:26;;;;;;;59.72;17.48;;;;;;;;;;6208828;23;20349;-74
2024/02/06 01:32:52;;;;;;;61.88;17.48;;;;;;;;;;6208996;23;20011;-74
2024/02/06 01:35:18;;;;;;;45.33;17.42;;;;;;;;;;6210352;23;20410;-74
2024/02/06 01:37:44;;;;;;;67.40;17.58;;;;;;;;;;6210901;23;20111;-75
2024/02/06 01:40:10;;;;;;;58.22;16.25;;;;;;;;;;6209015;23;20457;-72
2024/02/06 01:42:37;;;;;;;46.22;16.77;;;;;;;;;;6209375;23;20004;-74
2024/02/06 01:45:03;;;;;;;;;;;;;;;;;;6210176;23;20023;-74
2024/02/06 01:47:29;;;;;;;52.78;15.43;;;;;;;;;;6208303;23;19904;-74
2024/02/06 01:49:55;;;;;;;51.85;17.33;;;;;;;;;;6208937;23;20008;-76
2024/02/06 01:52:22;;;;;;;52.25;15.88;;;;;;;;;;6208902;23;20074;-75
2024/02/06 01:54:48;;;;;;;56.72;14.93;;;;;;;;;;6208561;23;20386;-71
2024/02/06 01:57:14;;;;;;;51.88;16.75;;;;;;;;;;6208916;23;20139;-71
2024/02/06 01:59:40;;;;;;;45.65;17.17;;;;;;;;;;6208976;23;20092;-73
2024/02/06 02:02:07;;;;;;;58.08;15.10;;;;;;;;;;6209031;23;20000;-74
2024/02/06 02:04:33;;;;;;;53.83;15.15;;;;;;;;;;6207307;23;20311;-74
2024/02/06 02:06:59;;;;;;;64.13;16.73;;;;;;;;;;6208329;23;20079;-74
2024/02/06 02:09:26;;;;;;;45.95;15.48;;;;;;;;;;6208568;23;20043;-75
2024/02/06 02:11:52;;;;;;;58.55;16.00;;;5.80;99.90;;;;;;6208229;23;20011;-75
2024/02/06 02:14:18;;;;;;;41.90;14.43;;;2.30;99.90;;;;;;6208544;23;20012;-75
2024/02/06 02:16:44;;;;;;;43.00;15.98;;;2.40;99.90;;;;;;6208280;23;20079;-75
2024/02/06 02:19:10;;;;;;;41.05;17.08;;;2.60;99.90;;;;;;6208968;23;20012;-73
2024/02/06 02:21:37;;;;;;;42.03;14.38;;;2.70;99.90;;;;;;6208204;23;20008;-73
2024/02/06 02:24:03;;;;;;;42.80;15.90;;;2.80;99.90;;;;;;6181399;23;20016;-73
2024/02/06 02:26:30;;;;;;;36.78;15.30;;;2.70;99.90;;;;;;6208745;23;20083;-73
2024/02/06 02:28:55;;;;;;;;;;;2.80;99.90;;;;;;6208980;23;20084;-72
2024/02/06 02:31:22;;;;;;;55.83;14.98;;;2.60;99.90;;;;;;6208340;23;19931;-72
2024/02/06 02:33:48;;;;;;;46.53;14.65;;;2.50;99.90;;;;;;6208089;23;20027;-74
2024/02/06 02:36:14;;;;;;;55.85;15.40;;;2.60;99.90;;;;;;6208329;23;20772;-75
2024/02/06 02:38:41;;;;;;;33.45;15.00;;;2.50;99.90;;;;;;6208337;23;20007;-74
2024/02/06 02:41:07;;;;;;;29.40;15.10;;;2.70;99.90;;;;;;6208705;23;20005;-75
2024/02/06 02:43:33;;;;;;;39.37;14.93;;;2.80;99.90;;;;;;6208273;23;20139;-74
2024/02/06 02:45:58;;;;;;;27.60;13.20;;;2.80;99.90;;;;;;6208136;23;20243;-74
2024/02/06 02:48:24;;;;;;;30.33;13.20;;;2.80;99.90;;;;;;6208869;23;20147;-75
2024/02/06 02:50:49;;;;;;;32.85;12.45;;;2.90;99.90;;;;;;6208542;23;20015;-72
2024/02/06 02:53:15;;;;;;;27.27;12.33;;;2.80;99.90;;;;;;6208324;23;20013;-74
2024/02/06 02:55:41;;;;;;;23.77;10.37;;;2.80;99.90;;;;;;6208319;23;20096;-74
2024/02/06 02:58:06;;;;;;;23.83;11.32;;;2.80;99.90;;;;;;6208116;23;20461;-74
2024/02/06 03:00:34;;;;;;;26.60;11.10;;;2.80;99.90;;;;;;6208025;23;20017;-74
2024/02/06 03:03:00;;;;;;;29.05;12.10;;;2.80;99.90;;;;;;6208235;23;20076;-74
2024/02/06 03:05:26;;;;;;;31.40;12.57;;;2.80;99.90;;;;;;6208037;23;20036;-74
2024/02/06 03:07:51;;;;;;;34.47;12.13;;;2.80;99.90;;;;;;6208275;23;20013;-74
2024/02/06 03:10:17;;;;;;;51.20;13.40;;;2.80;99.90;;;;;;6208541;23;20082;-75
2024/02/06 03:12:43;;;;;;;33.38;13.30;;;2.70;99.90;;;;;;6208316;23;20268;-74
2024/02/06 03:15:08;;;;;;;37.38;14.40;;;2.80;99.90;;;;;;6207992;23;20017;-75
2024/02/06 03:17:34;;;;;;;27.73;13.60;;;2.70;99.90;;;;;;6208747;23;20005;-74
2024/02/06 03:20:01;;;;;;;39.40;13.93;;;2.80;99.90;;;;;;6210528;23;20008;-74
2024/02/06 03:22:30;;;;;;;29.23;13.85;;;2.70;99.90;;;;;;6208971;23;20005;-71
2024/02/06 03:24:56;;;;;;;29.73;12.77;;;2.70;99.90;;;;;;6207787;23;20079;-70
2024/02/06 03:27:21;;;;;;;25.83;12.03;;;2.80;99.90;;;;;;6207951;23;20071;-70
2024/02/06 03:29:47;;;;;;;28.67;10.70;;;2.80;99.90;;;;;;6180868;23;20012;-70
2024/02/06 03:32:13;;;;;;;20.00;10.47;;;2.80;99.90;;;;;;6207905;23;20338;-74
2024/02/06 03:34:39;;;;;;;126.43;11.77;;;2.80;99.90;;;;;;6207807;23;20017;-75
2024/02/06 03:37:05;;;;;;;70.03;11.32;;;2.80;99.90;;;;;;6207765;23;20027;-74
2024/02/06 03:39:31;;;;;;;33.03;11.15;;;2.60;99.90;;;;;;6207815;23;20001;-74
2024/02/06 03:41:56;;;;;;;47.03;10.40;;;2.60;99.90;;;;;;6207596;23;20098;-74
2024/02/06 03:44:22;;;;;;;31.63;10.57;;;2.70;99.90;;;;;;6207700;23;20004;-73
2024/02/06 03:46:48;;;;;;;29.92;11.30;;;2.60;99.90;;;;;;6207169;23;20393;-72
2024/02/06 03:49:13;;;;;;;41.93;12.00;;;2.70;99.90;;;;;;6208000;23;20005;-74
2024/02/06 03:51:39;;;;;;;104.87;12.73;;;2.50;99.90;;;;;;6207962;23;20247;-75
2024/02/06 03:54:05;;;;;;;33.53;10.60;;;2.50;99.90;;;;;;6207980;23;20021;-75
2024/02/06 03:56:31;;;;;;;95.00;11.20;;;2.50;99.90;;;;;;6208064;23;20334;-74
2024/02/06 03:58:56;;;;;;;35.33;11.27;;;2.20;99.90;;;;;;6206234;23;20009;-73
2024/02/06 04:01:22;;;;;;;52.03;11.70;;;2.20;99.90;;;;;;6206660;23;20000;-72
2024/02/06 04:03:48;;;;;;;49.93;11.77;;;2.30;99.90;;;;;;6207332;23;20016;-71
2024/02/06 04:06:14;;;;;;;61.17;12.48;;;2.40;99.90;;;;;;6208747;23;20001;-71
2024/02/06 04:08:41;;;;;;;105.70;11.85;;;2.30;99.90;;;;;;6208759;23;20004;-72
2024/02/06 04:11:07;;;;;;;109.13;13.45;;;2.10;99.90;;;;;;6207621;23;20004;-73
2024/02/06 04:13:33;;;;;;;36.28;12.80;;;2.20;99.90;;;;;;6207993;23;20058;-72
2024/02/06 04:15:58;;;;;;;62.08;13.10;;;2.40;99.90;;;;;;6207288;23;20008;-73
2024/02/06 04:18:24;;;;;;;71.70;12.52;;;2.50;99.90;;;;;;6208377;23;20000;-72
2024/02/06 04:20:50;;;;;;;40.03;11.10;;;2.50;99.90;;;;;;6207867;23;20058;-71
2024/02/06 04:23:15;;;;;;;46.53;11.57;;;2.60;99.90;;;;;;6208334;23;20440;-72
2024/02/06 04:25:42;;;;;;;36.83;12.43;;;2.60;99.90;;;;;;6208544;23;20002;-72
2024/02/06 04:28:08;;;;;;;40.53;13.20;;;2.60;99.90;;;;;;6208774;23;20103;-72
2024/02/06 04:30:34;;;;;;;48.83;12.32;;;2.70;99.90;;;;;;6208311;23;20352;-70
2024/02/06 04:32:59;;;;;;;52.50;14.00;;;2.70;99.90;;;;;;6207984;23;20008;-71
2024/02/06 04:35:25;;;;;;;43.53;14.77;;;2.70;99.90;;;;;;6208189;23;20092;-72
2024/02/06 04:37:50;;;;;;;63.27;15.73;;;2.70;99.90;;;;;;6181230;23;20028;-70
2024/02/06 04:40:16;;;;;;;48.00;14.63;;;2.70;99.90;;;;;;6207962;23;20063;-71
2024/02/06 04:42:41;;;;;;;53.27;15.43;;;2.70;99.90;;;;;;6207658;23;20000;-72
2024/02/06 04:45:08;;;;;;;58.73;16.43;;;2.80;99.90;;;;;;6207839;23;20258;-71
2024/02/06 04:47:33;;;;;;;55.03;14.75;;;2.80;99.90;;;;;;6208213;23;20258;-71
2024/02/06 04:49:59;;;;;;;42.00;15.60;;;2.80;99.90;;;;;;6207442;23;20062;-71
2024/02/06 04:52:26;;;;;;;42.40;16.58;;;2.80;99.90;;;;;;6208186;23;20066;-71
2024/02/06 04:54:52;;;;;;;49.22;15.20;;;2.80;99.90;;;;;;6207070;23;20019;-72
2024/02/06 04:57:17;;;;;;;45.65;16.08;;;2.80;99.90;;;;;;6207412;23;20004;-72
2024/02/06 04:59:43;;;;;;;38.05;14.95;;;2.80;99.90;;;;;;6207581;23;20039;-71
2024/02/06 05:02:09;;;;;;;56.20;15.20;;;2.80;99.90;;;;;;6208287;23;20028;-72
2024/02/06 05:04:34;;;;;;;38.22;14.43;;;2.80;99.90;;;;;;6209497;23;20459;-71
2024/02/06 05:07:00;;;;;;;50.90;15.00;;;2.80;99.90;;;;;;6209704;23;20039;-70
2024/02/06 05:09:26;;;;;;;43.27;15.03;;;2.80;99.90;;;;;;6207785;23;20687;-69
2024/02/06 05:11:51;;;;;;;40.90;13.97;;;2.80;99.90;;;;;;6207455;23;20079;-70
2024/02/06 05:14:18;;;;;;;53.47;15.40;;;2.80;99.90;;;;;;6207295;23;20248;-69
2024/02/06 05:16:43;;;;;;;;;;;2.80;99.90;;;;;;6207765;23;20095;-71
2024/02/06 05:19:13;;;;;;;44.50;13.15;;;2.80;99.90;;;;;;6208065;23;19939;-70
2024/02/06 05:21:42;;;;;;;64.00;14.70;;;2.90;99.90;;;;;;6207465;23;20032;-71
2024/02/06 05:24:08;;;;;;;47.83;15.10;;;2.80;99.90;;;;;;6207855;23;20104;-72
2024/02/06 05:26:34;;;;;;;49.85;13.95;;;2.80;99.90;;;;;;6207093;23;20008;-72
2024/02/06 05:29:00;;;;;;;44.53;15.50;;;2.90;99.90;;;;;;6207519;23;20012;-72
2024/02/06 05:31:26;;;;;;;;;;;2.80;99.90;;;;;;6207610;23;20000;-72
2024/02/06 05:33:52;;;;;;;49.85;15.57;;;2.90;99.90;;;;;;6206787;23;19904;-70
2024/02/06 05:36:17;;;;;;;50.67;16.60;;;2.90;99.90;;;;;;6207831;23;20394;-70
2024/02/06 05:38:43;;;;;;;35.93;15.43;;;2.90;99.90;;;;;;6207718;23;20011;-71
2024/02/06 05:41:12;;;;;;;47.80;16.58;;;2.90;99.90;;;;;;6207647;23;20389;-72
2024/02/06 05:43:38;;;;;;;45.67;17.02;;;2.80;99.90;;;;;;6207967;23;20385;-72
2024/02/06 05:46:04;;;;;;;41.67;15.80;;;2.90;99.90;;;;;;6206652;23;20030;-70
2024/02/06 05:48:30;;;;;;;43.85;17.25;;;2.90;99.90;;;;;;6206846;23;20065;-71
2024/02/06 05:50:56;;;;;;;39.33;16.05;;;3.00;99.90;;;;;;6206757;23;20062;-72
2024/02/06 05:53:21;;;;;;;39.07;16.63;;;3.10;99.90;;;;;;6206892;23;20075;-72
2024/02/06 05:55:47;;;;;;;38.75;14.98;;;3.00;99.90;;;;;;6206808;23;20017;-73
2024/02/06 05:58:13;;;;;;;42.87;16.00;;;3.00;99.90;;;;;;6206763;23;20005;-71
2024/02/06 06:00:39;;;;;;;41.53;17.30;;;3.10;99.90;;;;;;6175520;23;20017;-72
2024/02/06 06:03:04;;;;;;;49.70;16.17;;;3.10;99.90;;;;;;6177142;23;20001;-73
2024/02/06 06:05:30;;;;;;;42.47;15.85;;;3.10;99.90;;;;;;6177500;23;20063;-70
2024/02/06 06:07:56;;;;;;;42.60;16.77;;;3.00;99.90;;;;;;6177547;23;20009;-71
2024/02/06 06:10:21;;;;;;;37.85;16.20;;;3.10;99.90;;;;;;6177183;23;20013;-71
2024/02/06 06:12:47;;;;;;;44.57;16.43;;;3.20;99.90;;;;;;6176311;23;20036;-72
2024/02/06 06:15:15;;;;;;;48.70;18.27;;;3.20;99.90;;;;;;6176753;23;20248;-72
2024/02/06 06:17:40;;;;;;;37.33;16.05;;;3.20;99.90;;;;;;6177218;23;20004;-71
2024/02/06 06:20:06;;;;;;;42.23;16.73;;;3.30;99.90;;;;;;6177291;23;20009;-71
2024/02/06 06:22:32;;;;;;;36.95;16.05;;;3.30;99.90;;;;;;6177210;23;20009;-72
2024/02/06 06:24:58;;;;;;;47.53;17.90;;;3.30;99.90;;;;;;6176556;23;20623;-71
2024/02/06 06:27:24;;;;;;;57.70;18.80;;;3.30;99.90;;;;;;6177075;23;20693;-71
2024/02/06 06:29:49;;;;;;;42.87;17.50;;;3.40;99.90;;;;;;6175238;23;20008;-71
2024/02/06 06:32:15;;;;;;;40.77;17.50;;;3.40;99.90;;;;;;6177176;23;20225;-71
2024/02/06 06:34:42;;;;;;;49.53;17.50;;;3.40;99.90;;;;;;6177018;23;20013;-72
2024/02/06 06:37:07;;;;;;;41.88;18.15;;;3.40;99.90;;;;;;6177287;23;20283;-72
2024/02/06 06:39:33;;;;;;;46.70;18.60;;;3.40;99.90;;;;;;6177206;23;20008;-71
2024/02/06 06:42:00;;;;;;;40.85;17.60;;;3.40;99.90;;;;;;6176492;23;20307;-71
2024/02/06 06:44:25;;;;;;;50.22;19.40;;;3.50;99.90;;;;;;6177214;23;20009;-71
2024/02/06 06:46:51;;;;;;;67.87;19.03;;;3.50;99.90;;;;;;6176870;23;20013;-71
2024/02/06 06:49:17;;;;;;;42.63;18.60;;;3.50;99.90;;;;;;6177265;23;19997;-71
2024/02/06 06:51:43;;;;;;;49.57;19.90;;;3.50;99.90;;;;;;6176949;23;20225;-71
2024/02/06 06:54:09;;;;;;;56.30;20.80;;;3.50;99.90;;;;;;6178504;23;20004;-71
2024/02/06 06:56:34;;;;;;;56.53;20.58;;;3.50;99.90;;;;;;6177187;23;20016;-71
2024/02/06 06:59:00;;;;;;;53.53;21.35;;;3.60;99.90;;;;;;6184472;23;20015;-72
2024/02/06 07:01:26;;;;;;;74.50;22.23;;;3.60;99.90;;;;;;6207051;23;20040;-72
2024/02/06 07:03:51;;;;;;;55.40;22.60;;;3.50;99.90;;;;;;6206332;23;20058;-72
2024/02/06 07:06:17;;;;;;;68.17;22.63;;;3.50;99.90;;;;;;6206918;23;20023;-73
2024/02/06 07:08:44;;;;;;;73.15;23.00;;;3.60;99.90;;;;;;6206769;23;20004;-72
2024/02/06 07:11:10;;;;;;;68.10;21.80;;;3.50;99.90;;;;;;6207192;23;20007;-72
2024/02/06 07:13:36;;;;;;;62.45;24.35;;;3.60;99.90;;;;;;6206534;23;20112;-72
2024/02/06 07:16:01;;;;;;;66.68;23.40;;;3.60;99.90;;;;;;6206248;23;20051;-70
2024/02/06 07:18:27;;;;;;;63.57;24.03;;;3.60;99.90;;;;;;6206552;23;19997;-69
2024/02/06 07:20:52;;;;;;;60.90;23.10;;;3.70;99.90;;;;;;6206504;23;20008;-71
2024/02/06 07:23:18;;;;;;;61.83;22.90;;;3.70;99.90;;;;;;6206411;23;20143;-70
2024/02/06 07:25:44;;;;;;;68.88;22.55;;;3.70;99.90;;;;;;6204486;23;20088;-69
2024/02/06 07:28:10;;;;;;;55.25;21.50;;;3.70;99.90;;;;;;6206387;23;20000;-70
2024/02/06 07:30:36;;;;;;;52.95;22.33;;;3.80;99.90;;;;;;6206135;23;20008;-69
2024/02/06 07:33:02;;;;;;;62.95;22.02;;;3.80;99.90;;;;;;6206105;23;20332;-68
2024/02/06 07:35:27;;;;;;;66.00;22.30;;;3.90;99.90;;;;;;6206130;23;20043;-69
2024/02/06 07:37:53;;;;;;;55.93;23.57;;;;;;;;;;6207549;23;20001;-70
2024/02/06 07:40:19;;;;;;;56.10;19.80;;;;;;;;;;6208153;23;20005;-71
2024/02/06 07:42:49;;;;;;;54.22;22.17;;;;;;;;;;6207689;23;20392;-71
2024/02/06 07:45:15;;;;;;;58.17;21.23;;;;;;;;;;6208389;23;20004;-70
2024/02/06 07:47:43;;;;;;;48.33;19.40;;;;;;;;;;6207078;23;20027;-70
2024/02/06 07:50:09;;;;;;;50.20;20.35;;;;;;;;;;6208452;23;20111;-71
2024/02/06 07:52:35;;;;;;;51.08;19.95;;;;;;;;;;6209118;23;20055;-72
2024/02/06 07:55:01;;;;;;;52.63;19.95;;;3.90;99.90;;;;;;6207718;23;20453;-70
2024/02/06 07:57:27;;;;;;;48.53;20.35;;;4.10;99.90;;;;;;6181388;23;20008;-71
2024/02/06 07:59:52;;;;;;;57.80;20.70;;;4.20;99.90;;;;;;6207796;23;20009;-71
2024/02/06 08:02:18;;;;;;;58.10;20.10;;;4.20;99.90;;;;;;6208236;23;20004;-71
2024/02/06 08:04:45;;;;;;;48.57;19.90;;;4.30;99.90;;;;;;6207271;23;20040;-71
2024/02/06 08:07:11;;;;;;;58.40;18.35;;;4.30;99.90;;;;;;6208908;23;20429;-71
2024/02/06 08:09:37;;;;;;;52.90;20.15;;;4.40;99.90;;;;;;6207490;23;20015;-71
2024/02/06 08:12:03;;;;;;;49.17;19.10;;;4.40;99.90;;;;;;6207842;23;20008;-71
2024/02/06 08:14:28;;;;;;;47.30;19.17;;;4.40;99.90;;;;;;6207498;23;20012;-72
2024/02/06 08:16:54;;;;;;;46.90;18.20;;;4.40;99.90;;;;;;6206673;23;20000;-72
2024/02/06 08:19:19;;;;;;;47.00;18.00;;;4.50;99.90;;;;;;6208151;23;20009;-72
2024/02/06 08:21:45;;;;;;;42.90;18.13;;;4.60;99.90;;;;;;6207948;23;20449;-71
2024/02/06 08:24:10;;;;;;;46.73;18.93;;;4.60;99.90;;;;;;6208407;23;20032;-71
2024/02/06 08:26:37;;;;;;;47.03;18.57;;;4.60;99.90;;;;;;6208082;23;20390;-71
2024/02/06 08:29:02;;;;;;;49.63;18.10;;;4.60;99.90;;;;;;6207500;23;20103;-71
2024/02/06 08:31:28;;;;;;;43.60;19.30;;;4.60;99.90;;;;;;6181543;23;20033;-71
2024/02/06 08:33:54;;;;;;;39.17;17.87;;;4.60;99.90;;;;;;6207539;23;20441;-71
2024/02/06 08:36:19;;;;;;;50.90;19.85;;;4.70;99.90;;;;;;6207877;23;20055;-71
2024/02/06 08:38:45;;;;;;;48.20;20.35;;;4.70;99.90;;;;;;6208328;23;20009;-71
2024/02/06 08:41:11;;;;;;;48.53;19.13;;;4.80;99.90;;;;;;6209751;23;20447;-71
2024/02/06 08:43:37;;;;;;;44.28;19.08;;;4.80;99.90;;;;;;6207844;23;20001;-70
2024/02/06 08:46:03;;;;;;;48.83;19.43;;;4.80;99.90;;;;;;6207316;23;20008;-72
2024/02/06 08:48:29;;;;;;;46.40;18.45;;;4.90;99.90;;;;;;6207299;23;20020;-73
2024/02/06 08:50:55;;;;;;;45.05;18.40;;;4.90;99.90;;;;;;6180261;23;20135;-72
2024/02/06 08:53:21;;;;;;;37.38;17.92;;;5.10;99.90;;;;;;6207674;23;20556;-70
2024/02/06 08:55:46;;;;;;;44.57;19.23;;;5.10;99.90;;;;;;6207148;23;20044;-71
2024/02/06 08:58:12;;;;;;;39.07;17.73;;;5.30;99.90;;;;;;6207416;23;20385;-70
2024/02/06 09:00:38;;;;;;;39.90;16.50;;;5.40;99.90;;;;;;6207872;23;20606;-73
2024/02/06 09:03:04;;;;;;;34.20;16.05;;;;;;;;;;6207265;23;20029;-70
2024/02/06 09:05:29;;;;;;;37.78;17.55;;;5.50;99.90;;;;;;6207504;23;20342;-70
2024/02/06 09:07:55;;;;;;;41.43;18.90;;;5.60;99.90;;;;;;6207073;23;20009;-70
2024/02/06 09:10:23;;;;;;;39.88;16.83;;;5.70;99.90;;;;;;6206086;23;20004;-70
2024/02/06 09:12:51;;;;;;;40.45;16.67;;;5.80;99.90;;;;;;6206154;23;20456;-70
2024/02/06 09:15:16;;;;;;;39.65;17.63;;;5.90;99.90;;;;;;6206685;23;20023;-70
2024/02/06 09:17:42;;;;;;;42.75;21.33;;;6.00;99.90;;;;;;6208210;23;20000;-69
2024/02/06 09:20:09;;;;;;;39.38;17.67;;;6.00;99.90;;;;;;6206276;23;20091;-69
2024/02/06 09:22:37;;;;;;;;;;;6.10;99.90;;;;;;6207613;23;20000;-69
2024/02/06 09:25:05;;;;;;;35.63;16.50;;;6.10;99.90;;;;;;6208079;23;19903;-71
2024/02/06 09:27:31;;;;;;;35.28;16.10;;;6.00;99.90;;;;;;6208150;23;20037;-71
2024/02/06 09:29:57;;;;;;;37.35;16.35;;;6.00;99.90;;;;;;6206387;23;20004;-70
2024/02/06 09:32:24;;;;;;;51.85;18.23;;;6.10;99.90;;;;;;6207862;23;20111;-71
2024/02/06 09:34:49;;;;;;;31.70;15.65;;;6.20;99.90;;;;;;6208011;23;20004;-71
2024/02/06 09:37:15;;;;;;;33.40;17.58;;;6.20;99.90;;;;;;6206945;23;20015;-71
2024/02/06 09:39:42;;;;;;;31.92;15.50;;;6.30;99.90;;;;;;6206638;23;20008;-71
2024/02/06 09:42:08;;;;;;;36.00;16.15;;;6.30;99.90;;;;;;6206206;23;20073;-71
2024/02/06 09:44:34;;;;;;;35.92;16.88;;;6.40;99.90;;;;;;6205491;23;20493;-71
2024/02/06 09:47:00;;;;;;;29.70;15.63;;;6.40;99.90;;;;;;6205811;23;20005;-71
2024/02/06 09:49:26;;;;;;;34.55;14.30;;;6.50;99.90;;;;;;6206321;23;20015;-71
2024/02/06 09:51:52;;;;;;;28.90;14.27;;;6.60;99.90;;;;;;6207124;23;20015;-71
2024/02/06 09:54:20;;;;;;;;;;;6.60;99.90;;;;;;6208494;23;20009;-71
2024/02/06 09:56:47;;;;;;;;;;;6.70;99.90;;;;;;6208723;23;19910;-71
2024/02/06 09:59:14;;;;;;;32.67;14.03;;;6.80;99.90;;;;;;6208255;23;20264;-71
2024/02/06 10:01:43;;;;;;;34.88;13.90;;;6.90;99.90;;;;;;6207507;23;20004;-71
2024/02/06 10:04:14;;;;;;;28.20;14.45;;;6.90;99.90;;;;;;6208022;23;20720;-72
2024/02/06 10:06:40;;;;;;;33.22;14.27;;;7.10;99.90;;;;;;6208930;23;20016;-71
2024/02/06 10:09:07;;;;;;;29.20;13.77;;;7.10;99.90;;;;;;6208421;23;20046;-71
2024/02/06 10:11:34;;;;;;;29.85;14.40;;;7.20;99.90;;;;;;6208142;23;20020;-72
2024/02/06 10:14:00;;;;;;;27.25;14.90;;;7.20;99.90;;;;;;6207891;23;20111;-71
2024/02/06 10:16:26;;;;;;;26.17;14.23;;;7.30;99.90;;;;;;6207784;23;20055;-71
2024/02/06 10:18:55;;;;;;;23.95;13.13;;;7.40;99.90;;;;;;6208780;23;20001;-72
2024/02/06 10:21:21;;;;;;;28.25;12.63;;;7.50;99.90;;;;;;6209459;23;20004;-71
2024/02/06 10:23:48;;;;;;;24.97;13.37;;;7.50;99.90;;;;;;6206749;23;20055;-71
2024/02/06 10:26:20;;;;;;;28.67;12.88;;;7.50;99.90;;;;;;6207056;23;20384;-71
2024/02/06 10:28:46;;;;;;;23.13;11.80;;;7.60;99.90;;;;;;6207202;23;20008;-71
2024/02/06 10:31:12;;;;;;;23.73;12.27;;;7.70;99.90;;;;;;6206947;23;20080;-71
2024/02/06 10:33:45;;;;;;;29.33;12.40;;;7.80;99.90;;;;;;5116497;27;20907;-69
2024/02/06 10:36:11;;;;;;;25.80;12.80;;;7.80;99.90;;;;;;5115803;28;20076;-69
2024/02/06 10:38:36;;;;;;;28.33;12.63;;;7.80;99.90;;;;;;5109713;28;20028;-69
2024/02/06 10:41:08;;;;;;;22.10;11.13;;;;;;;;;;5118402;28;20023;-68
2024/02/06 10:43:35;;;;;;;34.42;12.20;;;;;;;;;;5114893;27;20110;-70
2024/02/06 10:46:01;;;;;;;26.27;12.98;;;7.90;99.90;;;;;;5119939;28;20019;-70
2024/02/06 10:48:28;;;;;;;23.70;11.77;;;8.10;99.90;;;;;;5114775;27;20100;-71
2024/02/06 10:51:01;;;;;;;30.00;13.00;;;8.10;99.90;;;;;;5116960;28;20069;-72
2024/02/06 10:53:27;;;;;;;26.48;12.25;;;8.10;99.90;;;;;;5116960;28;20032;-72
2024/02/06 10:55:58;;;;;;;;;;;8.10;99.90;;;;;;5117076;28;20137;-69
2024/02/06 10:58:35;;;;;;;27.83;11.98;;;8.20;99.90;;;;;;5117626;28;19941;-69
2024/02/06 11:01:03;;;;;;;22.75;11.75;;;8.20;99.90;;;;;;5111981;28;20537;-70
2024/02/06 11:03:30;;;;;;;26.92;11.95;;;8.20;99.90;;;;;;5111947;28;20031;-68
2024/02/06 11:06:11;;;;;;;25.08;12.18;;;8.20;99.90;;;;;;5098442;28;20093;-71
2024/02/06 11:08:39;;;;;;;26.25;11.35;;;8.30;99.90;;;;;;5148348;27;20024;-69
2024/02/06 11:11:07;;;;;;;26.35;12.45;;;8.40;99.90;;;;;;5113966;28;20384;-68
2024/02/06 11:13:37;;;;;;;25.15;12.70;;;8.10;99.90;;;;;;5109614;28;20036;-68
2024/02/06 11:16:05;;;;;;;25.40;12.27;;;8.10;99.90;;;;;;5118270;27;20024;-69
2024/02/06 11:19:13;;;;;;;28.83;13.85;;;8.30;99.90;;;;;;5111226;28;20023;-68
2024/02/06 11:21:44;;;;;;;29.33;12.67;;;8.40;99.90;;;;;;5105720;28;20081;-69
2024/02/06 11:24:10;;;;;;;24.75;11.30;;;8.30;99.90;;;;;;5114016;28;20392;-68
2024/02/06 11:26:40;;;;;;;24.05;11.48;;;8.30;99.90;;;;;;5118110;27;20106;-68
2024/02/06 11:29:07;;;;;;;22.95;10.70;;;8.40;99.90;;;;;;5113088;27;20385;-68
2024/02/06 11:31:37;;;;;;;23.55;10.07;;;;;;;;;;5119980;28;20499;-69
2024/02/06 11:34:18;;;;;;;18.50;8.85;;;;;;;;;;5117055;28;20031;-69
2024/02/06 11:36:44;;;;;;;21.35;8.95;;;;;;;;;;5118032;28;20036;-68
2024/02/06 11:39:12;;;;;;;16.02;7.47;;;;;;;;;;5105833;28;20027;-68
2024/02/06 11:41:38;;;;;;;15.15;8.65;;;8.50;99.90;;;;;;5110472;28;20092;-68
2024/02/06 11:44:12;;;;;;;20.75;7.40;;;8.90;99.90;;;;;;5141125;27;20024;-68
2024/02/06 11:46:49;;;;;;;18.02;8.18;;;9.00;99.90;;;;;;5112108;27;20036;-68
2024/02/06 11:49:21;;;;;;;14.32;8.10;;;9.00;99.90;;;;;;5099787;28;20032;-68
2024/02/06 11:51:56;;;;;;;15.88;7.57;;;9.00;99.90;;;;;;5104502;28;20039;-68
2024/02/06 11:54:22;;;;;;;13.75;6.57;;;9.10;99.90;;;;;;5098408;28;20032;-68
2024/02/06 11:56:48;;;;;;;19.92;6.10;;;9.20;99.90;;;;;;5098632;28;20028;-71
2024/02/06 11:59:14;;;;;;;10.98;5.70;;;9.40;99.90;;;;;;5099233;28;20028;-71
2024/02/06 12:01:41;;;;;;;12.07;5.35;;;9.40;99.90;;;;;;5089473;28;20789;-70
2024/02/06 12:04:07;;;;;;;8.82;4.60;;;9.40;99.90;;;;;;5092756;28;20174;-71
2024/02/06 12:06:33;;;;;;;12.73;4.47;;;9.30;99.90;;;;;;5087945;28;20122;-69
2024/02/06 12:09:07;;;;;;;11.00;5.13;;;9.30;99.90;;;;;;5097125;28;20859;-69
2024/02/06 12:11:41;;;;;;;10.07;5.20;;;9.40;99.90;;;;;;5081674;28;20024;-71
2024/02/06 12:14:06;;;;;;;12.80;5.25;;;9.40;99.90;;;;;;5102484;28;20028;-71
2024/02/06 12:16:32;;;;;;;13.33;6.37;;;9.40;99.90;;;;;;5096391;28;20103;-71
2024/02/06 12:18:59;;;;;;;12.95;5.63;;;9.40;99.90;;;;;;5096992;28;20032;-75
2024/02/06 12:21:24;;;;;;;8.48;4.35;;;9.20;99.90;;;;;;5093787;28;20040;-76
2024/02/06 12:24:04;;;;;;;9.47;5.13;;;9.10;99.90;;;;;;5094761;27;20031;-76
2024/02/06 12:26:31;;;;;;;10.48;4.93;;;9.10;99.90;;;;;;5096086;28;20097;-76
2024/02/06 12:29:04;;;;;;;8.93;4.97;;;9.20;99.90;;;;;;5107012;28;20035;-76
2024/02/06 12:31:34;;;;;;;10.95;4.85;;;9.20;99.90;;;;;;5100081;27;20040;-76
2024/02/06 12:34:03;;;;;;;11.95;4.97;;;9.30;99.90;;;;;;5096109;28;20581;-75
2024/02/06 12:36:29;;;;;;;11.20;4.85;;;9.40;99.90;;;;;;5078401;28;20031;-75
2024/02/06 12:38:55;;;;;;;8.27;4.57;;;9.40;99.90;;;;;;5091427;28;20032;-76
2024/02/06 12:41:22;;;;;;;8.10;4.65;;;9.30;99.90;;;;;;5104883;28;20071;-75
2024/02/06 12:43:52;;;;;;;8.80;4.75;;;9.40;99.90;;;;;;5097178;28;20028;-75
2024/02/06 12:46:19;;;;;;;8.38;3.83;;;9.40;99.90;;;;;;5106190;28;20107;-74
2024/02/06 12:48:48;;;;;;;10.35;4.28;;;9.40;99.90;;;;;;5097028;28;20579;-75
2024/02/06 12:51:15;;;;;;;10.00;4.43;;;9.40;99.90;;;;;;5094816;28;20029;-77
2024/02/06 12:53:40;;;;;;;9.60;4.32;;;9.50;99.90;;;;;;5095026;27;20036;-78
2024/02/06 12:56:06;;;;;;;6.70;4.20;;;9.50;99.90;;;;;;5090401;28;20030;-75